Time;durP1;ratioP1;P1;durP2;ratioP2;P2;SDS_P1;SDS_P2;PMS_P1;PMS_P2;Temp;Humidity;BMP_temperature;BMP_pressure;BME280_temperature;BME280_humidity;BME280_pressure;Samples;Min_cycle;Max_cycle;Signal;HPM_P1;HPM_P2
2023/01/23 00:00:21;;;;;;;22.83;11.18;;;;;;;2.97;100.00;103687.78;5065637;28;20107;-65
2023/01/23 00:02:47;;;;;;;18.08;10.35;;;;;;;3.10;100.00;103693.56;5065794;28;20024;-66
2023/01/23 00:05:12;;;;;;;24.80;10.82;;;;;;;3.05;100.00;103687.25;5066020;28;20031;-67
2023/01/23 00:07:37;;;;;;;22.27;12.10;;;;;;;3.01;100.00;103688.84;5066092;28;20072;-63
2023/01/23 00:10:03;;;;;;;18.70;11.07;;;;;;;3.08;100.00;103683.06;5066249;28;20490;-66
2023/01/23 00:12:28;;;;;;;20.25;10.70;;;;;;;2.95;100.00;103676.41;5065533;28;20087;-65
2023/01/23 00:14:54;;;;;;;19.20;11.07;;;;;;;3.02;100.00;103682.78;5068191;28;20490;-66
2023/01/23 00:17:19;;;;;;;17.25;10.73;;;;;;;2.96;100.00;103685.13;5069782;28;20399;-63
2023/01/23 00:19:44;;;;;;;22.00;12.05;;;;;;;3.01;100.00;103676.69;5069865;28;20020;-64
2023/01/23 00:22:10;;;;;;;22.13;11.55;;;;;;;2.97;100.00;103682.59;5070079;28;20055;-65
2023/01/23 00:24:35;;;;;;;16.63;10.10;;;;;;;2.90;100.00;103683.16;5070285;28;20081;-66
2023/01/23 00:27:00;;;;;;;20.17;11.07;;;;;;;2.94;100.00;103685.06;5070041;28;20020;-67
2023/01/23 00:29:26;;;;;;;20.95;12.35;;;;;;;2.90;100.00;103678.84;5069270;28;20130;-67
2023/01/23 00:31:51;;;;;;;23.52;11.93;;;;;;;2.89;100.00;103674.44;5068581;28;20029;-67
2023/01/23 00:34:16;;;;;;;21.08;10.95;;;;;;;2.87;100.00;103663.06;5069922;28;20104;-67
2023/01/23 00:36:43;;;;;;;24.23;11.43;;;;;;;2.89;100.00;103668.34;5068835;28;20052;-70
2023/01/23 00:39:14;;;;;;;18.80;11.07;;;;;;;2.91;100.00;103669.28;5069165;28;20107;-68
2023/01/23 00:41:39;;;;;;;28.45;11.95;;;;;;;2.94;100.00;103660.72;5051957;28;20386;-66
2023/01/23 00:44:05;;;;;;;22.77;11.27;;;;;;;2.94;100.00;103653.78;5069031;28;20024;-66
2023/01/23 00:46:30;;;;;;;16.17;10.48;;;;;;;2.90;100.00;103650.19;5070135;28;20024;-65
2023/01/23 00:48:55;;;;;;;19.52;10.68;;;;;;;2.97;100.00;103645.22;5069599;28;20655;-68
2023/01/23 00:51:21;;;;;;;22.73;11.10;;;;;;;2.96;100.00;103644.34;5051347;28;20368;-63
2023/01/23 00:53:46;;;;;;;24.77;12.38;;;;;;;2.99;100.00;103633.16;5069937;28;20024;-66
2023/01/23 00:56:12;;;;;;;20.90;11.30;;;;;;;2.85;100.00;103646.47;5067620;28;20032;-66
2023/01/23 00:58:39;;;;;;;19.25;10.98;;;;;;;3.02;100.00;103648.94;5068604;28;20042;-67
2023/01/23 01:01:04;;;;;;;21.23;10.82;;;;;;;3.00;100.00;103654.06;5067582;28;20021;-67
2023/01/23 01:03:30;;;;;;;18.65;11.38;;;;;;;2.81;100.00;103654.09;5068259;28;20056;-66
2023/01/23 01:05:55;;;;;;;21.08;11.20;;;;;;;2.79;100.00;103656.63;5068442;28;20125;-67
2023/01/23 01:08:21;;;;;;;19.13;10.25;;;;;;;2.80;100.00;103657.50;5068284;28;20460;-64
2023/01/23 01:10:46;;;;;;;22.85;11.23;;;;;;;2.94;100.00;103656.41;5068542;28;20024;-67
2023/01/23 01:13:11;;;;;;;24.83;11.48;;;;;;;2.89;100.00;103648.38;5050044;28;20017;-66
2023/01/23 01:15:37;;;;;;;23.15;11.20;;;;;;;2.79;100.00;103646.19;5049273;28;20028;-68
2023/01/23 01:18:03;;;;;;;22.05;11.77;;;;;;;2.78;100.00;103645.31;5068770;28;20070;-67
2023/01/23 01:20:30;;;;;;;21.65;11.10;;;;;;;2.84;100.00;103651.63;5067586;28;20024;-66
2023/01/23 01:22:57;;;;;;;23.10;11.50;;;;;;;2.64;100.00;103662.03;5068167;28;20028;-66
2023/01/23 01:25:22;;;;;;;22.50;11.38;;;;;;;2.61;100.00;103661.88;5067726;28;20127;-66
2023/01/23 01:27:48;;;;;;;22.83;12.23;;;;;;;2.62;100.00;103664.56;5051190;28;20115;-65
2023/01/23 01:30:15;;;;;;;22.80;11.38;;;;;;;2.80;100.00;103657.50;5067820;28;20031;-65
2023/01/23 01:32:41;;;;;;;18.08;11.63;;;;;;;2.74;100.00;103651.19;5069034;28;20051;-64
2023/01/23 01:35:07;;;;;;;18.77;11.88;;;;;;;2.63;100.00;103661.16;5068835;28;20064;-66
2023/01/23 01:37:34;;;;;;;23.15;12.18;;;;;;;2.69;100.00;103663.13;5051002;28;20106;-64
2023/01/23 01:40:00;;;;;;;27.75;12.52;;;;;;;2.56;100.00;103664.28;5068609;28;20092;-66
2023/01/23 01:42:27;;;;;;;18.75;12.20;;;;;;;2.56;100.00;103664.28;5066949;28;20043;-63
2023/01/23 01:45:00;;;;;;;25.02;12.63;;;;;;;2.60;100.00;103670.53;5067307;28;20627;-66
2023/01/23 01:47:26;;;;;;;27.00;12.80;;;;;;;2.62;100.00;103676.72;5067565;28;20393;-66
2023/01/23 01:49:55;;;;;;;29.98;12.77;;;;;;;2.69;100.00;103665.75;5067111;28;20092;-66
2023/01/23 01:52:21;;;;;;;21.60;13.75;;;;;;;2.67;100.00;103658.69;5050601;28;20028;-66
2023/01/23 01:54:53;;;;;;;23.30;12.93;;;;;;;2.68;100.00;103661.34;5050299;28;20829;-66
2023/01/23 01:57:32;;;;;;;25.45;12.88;;;;;;;2.74;100.00;103674.63;5050702;28;20029;-65
2023/01/23 02:00:14;;;;;;;25.77;12.57;;;;;;;2.65;100.00;103679.47;5067413;28;20032;-69
2023/01/23 02:02:57;;;;;;;20.98;12.32;;;;;;;2.60;100.00;103681.84;5068225;28;20769;-66
2023/01/23 02:05:23;;;;;;;31.35;12.93;;;;;;;2.59;100.00;103676.56;5068201;28;20025;-66
2023/01/23 02:08:12;;;;;;;27.67;13.48;;;;;;;2.43;100.00;103682.75;5068131;28;20052;-66
2023/01/23 02:10:39;;;;;;;24.73;12.13;;;;;;;2.47;100.00;103680.38;5121323;22;20065;-69
2023/01/23 02:13:31;;;;;;;26.75;13.25;;;;;;;2.42;100.00;103678.38;5006852;28;20040;-68
2023/01/23 02:15:57;;;;;;;23.90;12.68;;;;;;;2.48;100.00;103676.97;5026796;28;20530;-67
2023/01/23 02:18:23;;;;;;;23.88;13.10;;;;;;;2.51;100.00;103678.81;5009660;28;20083;-67
2023/01/23 02:20:51;;;;;;;24.15;12.10;;;;;;;2.43;100.00;103683.66;4994329;28;20021;-68
2023/01/23 02:23:37;;;;;;;29.75;14.35;;;;;;;2.44;100.00;103687.16;5010892;28;20026;-67
2023/01/23 02:26:06;;;;;;;27.13;13.48;;;;;;;2.36;100.00;103681.59;5028195;28;20025;-68
2023/01/23 02:28:39;;;;;;;21.50;12.80;;;;;;;2.60;100.00;103683.53;5009633;28;20029;-68
2023/01/23 02:31:05;;;;;;;24.08;12.77;;;;;;;2.67;100.00;103677.78;5024995;28;20021;-65
2023/01/23 02:33:30;;;;;;;32.35;13.50;;;;;;;2.53;100.00;103683.25;5023942;28;20100;-65
2023/01/23 02:35:59;;;;;;;29.85;13.13;;;;;;;2.66;100.00;103686.44;5025480;28;20120;-66
2023/01/23 02:38:27;;;;;;;27.80;13.57;;;;;;;2.59;100.00;103685.25;5026599;28;20368;-69
2023/01/23 02:40:52;;;;;;;24.48;12.45;;;;;;;2.62;100.00;103690.59;5009657;28;20018;-67
2023/01/23 02:43:20;;;;;;;28.65;13.40;;;;;;;2.64;100.00;103694.19;5009325;28;20450;-68
2023/01/23 02:45:45;;;;;;;29.25;12.98;;;;;;;2.70;100.00;103684.84;5009808;28;20045;-67
2023/01/23 02:48:11;;;;;;;25.10;12.27;;;;;;;2.64;100.00;103688.97;5027615;28;20033;-67
2023/01/23 02:50:36;;;;;;;30.02;12.43;;;;;;;2.63;100.00;103681.09;5027200;28;20025;-66
2023/01/23 02:53:02;;;;;;;28.10;13.75;;;;;;;2.59;100.00;103673.97;5027148;28;20487;-70
2023/01/23 02:55:29;;;;;;;23.08;12.85;;;;;;;2.51;100.00;103676.22;5036050;28;20033;-67
2023/01/23 03:00:14;;;;;;;21.50;11.80;;;;;;;2.66;100.00;103681.22;5046630;28;20021;-66
2023/01/23 03:00:42;;;;;;;29.20;12.50;;;;;;;2.53;100.00;103682.38;5029263;28;20064;-69
2023/01/23 03:03:08;;;;;;;31.75;13.93;;;;;;;2.49;100.00;103678.75;5026147;28;20029;-67
2023/01/23 03:05:33;;;;;;;21.98;12.20;;;;;;;2.63;100.00;103683.69;5026285;28;20017;-68
2023/01/23 03:07:59;;;;;;;27.63;13.35;;;;;;;2.57;100.00;103680.78;5026569;28;20022;-65
2023/01/23 03:10:24;;;;;;;32.70;12.18;;;;;;;2.70;100.00;103690.94;5027876;28;20396;-69
2023/01/23 03:12:49;;;;;;;29.08;13.40;;;;;;;2.69;100.00;103690.88;5027622;28;20488;-68
2023/01/23 03:15:15;;;;;;;25.77;12.82;;;;;;;2.77;100.00;103689.53;5027041;28;20033;-67
2023/01/23 03:17:40;;;;;;;27.38;12.85;;;;;;;2.80;100.00;103697.44;5026884;28;20049;-63
2023/01/23 03:20:06;;;;;;;24.77;13.15;;;;;;;2.72;100.00;103704.03;5026810;28;20018;-67
2023/01/23 03:22:31;;;;;;;28.83;13.38;;;;;;;2.73;100.00;103711.94;5027231;28;20379;-67
2023/01/23 03:24:57;;;;;;;20.17;12.40;;;;;;;2.61;100.00;103708.75;5026877;28;20022;-67
2023/01/23 03:27:23;;;;;;;31.95;14.02;;;;;;;2.77;100.00;103707.75;5027309;28;20083;-65
2023/01/23 03:32:32;;;;;;;30.60;13.70;;;;;;;2.58;100.00;103714.72;5007142;28;20149;-66
2023/01/23 03:34:58;;;;;;;23.80;13.35;;;;;;;2.68;100.00;103721.22;5006310;28;20548;-68
2023/01/23 03:37:27;;;;;;;30.10;13.85;;;;;;;2.75;100.00;103722.41;5006405;28;20036;-69
2023/01/23 03:42:36;;;;;;;26.80;13.60;;;;;;;2.87;100.00;103706.44;5008202;28;20571;-67
2023/01/23 03:45:01;;;;;;;28.88;13.98;;;;;;;2.77;100.00;103710.38;5009846;28;20065;-68
2023/01/23 03:47:27;;;;;;;27.55;14.02;;;;;;;2.78;100.00;103706.94;5010206;28;20022;-65
2023/01/23 03:49:52;;;;;;;27.73;13.85;;;;;;;2.77;100.00;103707.75;5012961;28;20037;-67
2023/01/23 03:52:18;;;;;;;27.30;12.73;;;;;;;2.75;100.00;103707.69;5014620;28;20026;-68
2023/01/23 03:54:43;;;;;;;29.02;13.85;;;;;;;2.61;100.00;103708.75;5011193;28;20444;-68
2023/01/23 03:57:09;;;;;;;26.45;13.77;;;;;;;2.69;100.00;103707.41;4993576;28;20041;-65
2023/01/23 03:59:34;;;;;;;29.52;13.30;;;;;;;2.64;100.00;103708.91;5027987;28;20182;-68
2023/01/23 04:02:03;;;;;;;29.42;14.20;;;;;;;2.66;100.00;103709.88;5050393;28;20694;-68
2023/01/23 04:04:29;;;;;;;24.27;12.93;;;;;;;2.73;100.00;103713.63;5049518;28;20490;-68
2023/01/23 04:06:54;;;;;;;28.70;13.82;;;;;;;2.74;100.00;103720.63;5050155;28;20029;-70
2023/01/23 04:09:24;;;;;;;34.15;14.60;;;;;;;2.67;100.00;103718.59;5051886;28;20427;-67
2023/01/23 04:11:50;;;;;;;28.58;13.88;;;;;;;2.67;100.00;103719.44;5051365;28;20052;-68
2023/01/23 04:14:15;;;;;;;25.48;14.32;;;;;;;2.66;100.00;103715.06;5050855;28;20021;-69
2023/01/23 04:16:40;;;;;;;25.92;13.85;;;;;;;2.48;100.00;103699.50;5050743;28;20032;-65
2023/01/23 04:19:06;;;;;;;26.35;14.07;;;;;;;2.62;100.00;103706.22;5031528;28;20110;-67
2023/01/23 04:21:31;;;;;;;22.65;13.23;;;;;;;2.69;100.00;103702.19;5030096;28;20057;-66
2023/01/23 04:23:56;;;;;;;31.27;13.32;;;;;;;2.80;100.00;103707.00;5028818;28;20159;-66
2023/01/23 04:26:22;;;;;;;28.15;13.68;;;;;;;2.84;100.00;103706.31;5029470;28;20115;-69
2023/01/23 04:28:47;;;;;;;29.05;14.57;;;;;;;2.87;100.00;103714.25;5029750;28;20075;-68
2023/01/23 04:31:12;;;;;;;29.38;13.35;;;;;;;2.76;100.00;103714.66;5029148;28;20036;-66
2023/01/23 04:33:38;;;;;;;26.00;13.77;;;;;;;2.78;100.00;103717.34;5029809;28;20080;-67
2023/01/23 04:36:04;;;;;;;28.45;14.07;;;;;;;2.76;100.00;103719.88;5023510;28;20064;-68
2023/01/23 04:38:30;;;;;;;25.25;13.52;;;;;;;2.77;100.00;103721.66;5028780;28;20183;-65
2023/01/23 04:40:55;;;;;;;29.20;14.55;;;;;;;2.94;100.00;103713.72;5027309;28;20108;-66
2023/01/23 04:43:21;;;;;;;26.42;13.93;;;;;;;2.84;100.00;103719.34;5028488;28;20080;-67
2023/01/23 04:45:49;;;;;;;28.17;13.52;;;;;;;2.75;100.00;103718.09;5026851;28;20029;-68
2023/01/23 04:48:15;;;;;;;30.33;15.00;;;;;;;2.92;100.00;103717.94;5023871;28;20022;-67
2023/01/23 04:50:40;;;;;;;29.45;13.65;;;;;;;2.81;100.00;103724.41;5028464;28;20081;-68
2023/01/23 04:53:05;;;;;;;30.85;14.82;;;;;;;2.79;100.00;103729.53;5028016;28;20021;-68
2023/01/23 04:55:32;;;;;;;32.42;13.82;;;;;;;2.73;100.00;103732.75;5028364;28;20045;-68
2023/01/23 04:57:58;;;;;;;37.35;15.15;;;;;;;2.76;100.00;103730.28;5027808;28;20053;-70
2023/01/23 05:00:24;;;;;;;28.08;14.13;;;;;;;2.92;100.00;103736.19;5010614;28;20117;-67
2023/01/23 05:02:49;;;;;;;22.80;14.75;;;;;;;2.78;100.00;103735.56;5011916;28;20045;-66
2023/01/23 05:05:16;;;;;;;27.52;14.70;;;;;;;2.72;100.00;103743.09;5029501;28;20025;-70
2023/01/23 05:07:43;;;;;;;35.45;15.85;;;;;;;2.72;100.00;103738.78;5029542;28;20021;-68
2023/01/23 05:10:09;;;;;;;32.63;16.15;;;;;;;2.63;100.00;103744.47;5028525;28;20125;-69
2023/01/23 05:12:34;;;;;;;28.83;14.75;;;;;;;2.74;100.00;103742.34;5023066;28;20030;-68
2023/01/23 05:15:00;;;;;;;30.52;14.88;;;;;;;2.68;100.00;103739.44;5026871;28;20021;-68
2023/01/23 05:17:25;;;;;;;31.15;14.93;;;;;;;2.87;100.00;103748.13;5027856;28;20029;-69
2023/01/23 05:19:50;;;;;;;31.77;16.75;;;;;;;2.98;100.00;103751.22;5028368;28;20021;-67
2023/01/23 05:22:16;;;;;;;29.90;15.02;;;;;;;2.88;100.00;103742.06;5023243;28;20030;-66
2023/01/23 05:24:42;;;;;;;34.47;15.73;;;;;;;2.90;100.00;103743.06;5027794;28;20022;-68
2023/01/23 05:27:08;;;;;;;32.05;15.07;;;;;;;2.95;100.00;103735.44;5040191;28;20044;-68
2023/01/23 05:29:33;;;;;;;27.08;14.43;;;;;;;2.83;100.00;103730.56;5041440;28;20025;-64
2023/01/23 05:31:58;;;;;;;31.67;15.18;;;;;;;2.88;100.00;103736.88;5028618;28;20136;-66
2023/01/23 05:34:23;;;;;;;32.53;15.68;;;;;;;2.90;100.00;103735.25;5037743;28;20471;-67
2023/01/23 05:36:49;;;;;;;28.35;15.52;;;;;;;2.92;100.00;103736.19;5031142;28;20395;-68
2023/01/23 05:39:14;;;;;;;34.50;15.40;;;;;;;2.88;100.00;103739.47;5041665;28;20024;-68
2023/01/23 05:41:39;;;;;;;28.55;15.85;;;;;;;2.98;100.00;103741.66;5036444;28;20396;-64
2023/01/23 05:44:05;;;;;;;40.20;15.80;;;;;;;2.91;100.00;103742.22;5027965;28;20380;-68
2023/01/23 05:46:30;;;;;;;37.40;16.27;;;;;;;2.88;100.00;103744.69;5039515;28;20391;-68
2023/01/23 05:48:55;;;;;;;32.35;15.43;;;;;;;2.82;100.00;103747.00;5028296;28;20456;-69
2023/01/23 05:51:22;;;;;;;32.47;15.60;;;;;;;2.83;100.00;103751.41;5027419;28;20026;-66
2023/01/23 05:53:47;;;;;;;32.22;15.23;;;;;;;2.93;100.00;103747.50;5026598;28;20088;-69
2023/01/23 05:56:13;;;;;;;29.73;14.82;;;;;;;3.07;100.00;103746.41;5024500;28;20605;-69
2023/01/23 05:58:38;;;;;;;31.08;15.45;;;;;;;3.07;100.00;103745.53;5027332;28;20468;-67
2023/01/23 06:01:04;;;;;;;31.40;15.52;;;;;;;2.97;100.00;103754.63;5010401;28;20036;-68
2023/01/23 06:03:30;;;;;;;33.03;15.15;;;;;;;3.01;100.00;103762.66;4992362;28;20080;-68
2023/01/23 06:05:55;;;;;;;31.33;15.25;;;;;;;3.02;100.00;103759.25;5007847;28;20108;-65
2023/01/23 06:08:20;;;;;;;30.55;15.55;;;;;;;3.03;100.00;103754.91;5008315;28;20026;-63
2023/01/23 06:10:46;;;;;;;37.22;14.90;;;;;;;3.07;100.00;103759.44;4990687;28;20054;-68
2023/01/23 06:13:11;;;;;;;25.63;15.50;;;;;;;3.12;100.00;103759.63;5006568;28;20022;-69
2023/01/23 06:15:36;;;;;;;29.35;15.23;;;;;;;3.01;100.00;103756.56;5008010;28;20041;-69
2023/01/23 06:18:02;;;;;;;28.83;15.13;;;;;;;3.00;100.00;103768.69;5007818;28;20029;-70
2023/01/23 06:20:27;;;;;;;31.90;15.05;;;;;;;2.99;100.00;103756.50;5008297;28;20435;-68
2023/01/23 06:22:52;;;;;;;33.28;15.65;;;;;;;2.99;100.00;103763.41;5029541;28;20039;-71
2023/01/23 06:25:19;;;;;;;26.92;15.80;;;;;;;2.80;100.00;103762.56;5047419;28;20613;-67
2023/01/23 06:27:45;;;;;;;35.00;17.23;;;;;;;2.88;100.00;103766.44;5045404;28;20021;-69
2023/01/23 06:30:11;;;;;;;33.95;16.88;;;;;;;2.92;100.00;103769.16;5046883;28;20372;-65
2023/01/23 06:32:36;;;;;;;37.20;16.42;;;;;;;3.00;100.00;103765.19;5047403;28;20379;-68
2023/01/23 06:35:02;;;;;;;29.73;16.17;;;;;;;3.05;100.00;103775.81;5039654;28;20026;-69
2023/01/23 06:37:27;;;;;;;28.90;15.90;;;;;;;3.09;100.00;103762.09;5027423;28;20119;-66
2023/01/23 06:39:52;;;;;;;37.17;16.23;;;;;;;3.06;100.00;103764.56;5026949;28;20026;-68
2023/01/23 06:42:18;;;;;;;37.30;15.88;;;;;;;3.01;100.00;103761.78;5026747;28;20028;-67
2023/01/23 06:44:43;;;;;;;34.40;17.10;;;;;;;3.03;100.00;103755.81;5026277;28;20021;-67
2023/01/23 06:47:09;;;;;;;29.67;16.08;;;;;;;3.05;100.00;103760.19;5024821;28;20025;-66
2023/01/23 06:49:34;;;;;;;27.73;16.23;;;;;;;3.08;100.00;103758.63;5026247;28;20021;-66
2023/01/23 06:51:59;;;;;;;33.67;17.77;;;;;;;3.05;100.00;103762.78;5026511;28;20089;-68
2023/01/23 06:54:25;;;;;;;35.92;16.50;;;;;;;3.10;100.00;103761.31;5029010;28;20109;-69
2023/01/23 06:56:50;;;;;;;30.88;16.27;;;;;;;3.09;100.00;103763.00;5036924;28;20072;-65
2023/01/23 06:59:16;;;;;;;32.53;15.77;;;;;;;3.14;100.00;103755.41;5031498;28;20499;-67
2023/01/23 07:01:41;;;;;;;32.40;16.10;;;;;;;3.05;100.00;103763.69;5014397;28;20029;-68
2023/01/23 07:04:10;;;;;;;31.42;16.40;;;;;;;3.07;100.00;103771.59;5024647;28;20468;-65
2023/01/23 07:06:35;;;;;;;32.13;16.02;;;;;;;3.00;100.00;103766.09;5026814;28;20472;-68
2023/01/23 07:09:01;;;;;;;31.00;16.75;;;;;;;2.88;100.00;103763.81;5029970;28;20048;-66
2023/01/23 07:11:26;;;;;;;28.05;15.25;;;;;;;2.96;100.00;103772.00;4972451;28;1124792;-68
2023/01/23 07:13:52;;;;;;;33.47;16.52;;;;;;;2.93;100.00;103769.25;5030845;28;20067;-68
2023/01/23 07:16:17;;;;;;;32.85;15.68;;;;;;;3.02;100.00;103781.78;5046832;28;20116;-68
2023/01/23 07:18:43;;;;;;;31.80;17.23;;;;;;;3.02;100.00;103779.19;5046975;28;20035;-66
2023/01/23 07:21:08;;;;;;;37.85;18.30;;;;;;;3.12;100.00;103780.47;5047700;28;20024;-67
2023/01/23 07:23:34;;;;;;;34.08;16.15;;;;;;;2.99;100.00;103779.94;5048500;28;20032;-68
2023/01/23 07:26:00;;;;;;;38.95;17.25;;;;;;;2.93;100.00;103786.56;5048748;28;20029;-72
2023/01/23 07:28:26;;;;;;;37.00;17.13;;;;;;;2.87;100.00;103798.50;5046904;28;20029;-69
2023/01/23 07:30:51;;;;;;;31.23;16.65;;;;;;;2.93;100.00;103790.09;5047115;28;20039;-67
2023/01/23 07:33:17;;;;;;;30.50;16.80;;;;;;;3.01;100.00;103793.03;5047633;28;20100;-66
2023/01/23 07:35:42;;;;;;;31.10;16.48;;;;;;;3.06;100.00;103806.25;5029460;28;20475;-68
2023/01/23 07:38:07;;;;;;;35.28;16.90;;;;;;;3.17;100.00;103802.44;5044732;28;20059;-67
2023/01/23 07:40:33;;;;;;;30.63;16.00;;;;;;;3.07;100.00;103805.44;5025247;28;20025;-65
2023/01/23 07:42:58;;;;;;;29.63;16.58;;;;;;;3.05;100.00;103802.78;5020091;28;20088;-66
2023/01/23 07:45:23;;;;;;;28.55;17.35;;;;;;;2.95;100.00;103805.78;5026734;28;20025;-67
2023/01/23 07:47:49;;;;;;;32.50;18.00;;;;;;;2.84;100.00;103813.09;5026370;28;20030;-68
2023/01/23 07:50:14;;;;;;;34.67;16.98;;;;;;;2.95;100.00;103814.47;5026295;28;20021;-69
2023/01/23 07:52:40;;;;;;;32.97;15.90;;;;;;;2.92;100.00;103819.53;5026908;28;20806;-66
2023/01/23 07:55:05;;;;;;;37.10;16.73;;;;;;;3.05;100.00;103820.13;5026328;28;20577;-66
2023/01/23 07:57:32;;;;;;;30.33;17.05;;;;;;;3.12;100.00;103824.78;5025897;28;20039;-72
2023/01/23 07:59:58;;;;;;;34.67;17.20;;;;;;;3.13;100.00;103823.97;5023374;28;20403;-67
2023/01/23 08:02:23;;;;;;;36.50;17.23;;;;;;;3.00;100.00;103828.63;5017527;28;20049;-69
2023/01/23 08:04:48;;;;;;;33.60;17.88;;;;;;;3.06;100.00;103827.09;5023229;28;20029;-68
2023/01/23 08:07:14;;;;;;;33.15;16.77;;;;;;;2.97;100.00;103827.56;5018069;28;20026;-69
2023/01/23 08:09:39;;;;;;;30.25;17.08;;;;;;;3.12;100.00;103845.63;5018640;28;20114;-70
2023/01/23 08:12:05;;;;;;;30.90;16.38;;;;;;;3.03;100.00;103833.06;4996033;28;20140;-66
2023/01/23 08:14:30;;;;;;;32.10;17.80;;;;;;;3.05;100.00;103838.34;5010096;28;20046;-66
2023/01/23 08:16:55;;;;;;;31.92;16.27;;;;;;;3.13;100.00;103835.28;5018135;28;20037;-68
2023/01/23 08:19:24;;;;;;;33.97;17.05;;;;;;;3.03;100.00;103839.19;5018472;28;20029;-67
2023/01/23 08:21:49;;;;;;;31.13;17.30;;;;;;;3.15;100.00;103838.84;5020062;28;20029;-68
2023/01/23 08:24:14;;;;;;;31.13;16.67;;;;;;;2.88;100.00;103844.56;5021629;28;20029;-65
2023/01/23 08:26:40;;;;;;;41.28;18.38;;;;;;;2.83;100.00;103855.59;5025461;28;20484;-67
2023/01/23 08:29:06;;;;;;;37.50;16.75;;;;;;;3.00;100.00;103852.06;5023259;28;20500;-68
2023/01/23 08:31:31;;;;;;;32.65;17.40;;;;;;;3.02;100.00;103853.03;5022031;28;20112;-68
2023/01/23 08:33:57;;;;;;;27.80;16.85;;;;;;;2.99;100.00;103860.72;5010649;28;20172;-66
2023/01/23 08:36:22;;;;;;;38.83;17.58;;;;;;;3.05;100.00;103869.63;5021208;28;20104;-67
2023/01/23 08:38:48;;;;;;;35.83;18.48;;;;;;;3.05;100.00;103869.63;5010431;28;20166;-68
2023/01/23 08:41:14;;;;;;;29.30;16.25;;;;;;;3.20;100.00;103872.94;5026902;28;20021;-67
2023/01/23 08:43:40;;;;;;;29.17;16.52;;;;;;;3.33;100.00;103876.09;5029310;28;20598;-66
2023/01/23 08:46:06;;;;;;;29.13;17.40;;;;;;;3.31;100.00;103869.94;5029054;28;20044;-71
2023/01/23 08:48:33;;;;;;;35.08;17.23;;;;;;;3.19;100.00;103880.69;5023833;28;20065;-66
2023/01/23 08:51:00;;;;;;;36.38;16.92;;;;;;;3.24;100.00;103879.16;5008379;28;20022;-67
2023/01/23 08:53:26;;;;;;;30.33;16.67;;;;;;;3.19;100.00;103876.34;5008973;28;20380;-67
2023/01/23 08:55:52;;;;;;;30.00;18.17;;;;;;;3.17;100.00;103875.41;5009352;28;20029;-69
2023/01/23 08:58:17;;;;;;;29.48;16.67;;;;;;;3.22;100.00;103866.06;5009654;28;20413;-71
2023/01/23 09:00:43;;;;;;;32.65;16.88;;;;;;;3.15;100.00;103858.78;5010966;28;20021;-69
2023/01/23 09:03:08;;;;;;;28.48;17.25;;;;;;;3.35;100.00;103869.25;5022498;28;20106;-67
2023/01/23 09:05:34;;;;;;;29.17;16.48;;;;;;;3.53;100.00;103870.06;5009223;28;20491;-65
2023/01/23 09:07:59;;;;;;;29.73;17.73;;;;;;;3.34;100.00;103862.25;5029515;28;20080;-68
2023/01/23 09:10:25;;;;;;;30.55;16.98;;;;;;;3.28;100.00;103866.34;5031721;28;20029;-65
2023/01/23 09:12:51;;;;;;;32.53;16.42;;;;;;;3.25;100.00;103865.34;5027783;28;20030;-65
2023/01/23 09:15:17;;;;;;;31.48;16.95;;;;;;;3.41;100.00;103867.78;5030227;28;20017;-67
2023/01/23 09:17:42;;;;;;;32.65;16.73;;;;;;;3.33;100.00;103870.88;5029491;28;20309;-70
2023/01/23 09:20:10;;;;;;;29.42;17.15;;;;;;;3.45;100.00;103873.16;5028969;28;20018;-64
2023/01/23 09:22:35;;;;;;;30.73;17.13;;;;;;;3.62;100.00;103872.22;5031213;28;20021;-69
2023/01/23 09:25:01;;;;;;;30.77;16.73;;;;;;;3.45;100.00;103866.22;5029400;28;20399;-66
2023/01/23 09:27:26;;;;;;;27.70;15.80;;;;;;;3.60;100.00;103867.72;5028548;28;20364;-67
2023/01/23 09:29:52;;;;;;;29.35;15.40;;;;;;;3.52;100.00;103870.88;5030421;28;20018;-69
2023/01/23 09:32:17;;;;;;;25.60;15.57;;;;;;;3.65;100.00;103874.06;5028897;28;20025;-68
2023/01/23 09:34:42;;;;;;;27.73;15.88;;;;;;;3.83;100.00;103876.59;5030111;28;20056;-68
2023/01/23 09:37:08;;;;;;;31.15;15.18;;;;;;;3.89;100.00;103873.34;5031004;28;20471;-68
2023/01/23 09:39:33;;;;;;;31.38;15.45;;;;;;;3.76;100.00;103869.28;5028728;28;20541;-70
2023/01/23 09:42:06;;;;;;;30.20;16.33;;;;;;;3.89;100.00;103875.97;5027214;28;20116;-70
2023/01/23 09:44:36;;;;;;;29.23;15.68;;;;;;;4.24;100.00;103883.50;5001879;28;20399;-65
2023/01/23 09:47:09;;;;;;;25.00;14.13;;;;;;;4.11;100.00;103887.31;5006432;28;20025;-68
2023/01/23 09:49:39;;;;;;;28.20;14.13;;;;;;;4.30;100.00;103895.09;4999975;28;20029;-66
2023/01/23 09:52:12;;;;;;;23.58;13.90;;;;;;;4.38;100.00;103907.56;5028286;28;20033;-68
2023/01/23 09:54:45;;;;;;;25.83;14.45;;;;;;;4.46;100.00;103898.34;4991244;28;20057;-62
2023/01/23 09:57:25;;;;;;;24.00;13.82;;;;;;;4.65;100.00;103897.38;4990171;28;20232;-69
2023/01/23 10:00:05;;;;;;;24.75;14.25;;;;;;;4.48;100.00;103906.25;4991745;28;20034;-66
2023/01/23 10:02:30;;;;;;;23.35;14.77;;;;;;;4.54;100.00;103901.25;5009401;28;20774;-67
2023/01/23 10:04:57;;;;;;;24.35;13.73;;;;;;;4.55;100.00;103901.31;5024456;28;20108;-72
2023/01/23 10:08:01;;;;;;;25.52;13.65;;;;;;;4.62;100.00;103899.84;5028826;28;20446;-65
2023/01/23 10:10:52;;;;;;;28.30;14.68;;;;;;;4.43;100.00;103900.81;4967365;28;20115;-69
2023/01/23 10:13:43;;;;;;;22.15;14.10;;;;;;;4.22;100.00;103895.59;5022709;28;20057;-63
2023/01/23 10:16:17;;;;;;;28.75;14.40;;;;;;;3.92;100.00;103892.63;5026556;28;20432;-67
2023/01/23 10:19:04;;;;;;;23.65;14.20;;;;;;;4.16;100.00;103888.41;5028427;28;20026;-68
2023/01/23 10:21:41;;;;;;;25.85;15.38;;;;;;;4.47;100.00;103892.28;5045156;28;20035;-66
2023/01/23 10:24:39;;;;;;;20.98;14.10;;;;;;;4.66;100.00;103891.31;5047734;28;20036;-67
2023/01/23 10:27:44;;;;;;;24.07;13.93;;;;;;;4.69;100.00;103872.25;5032982;28;20037;-68
2023/01/23 10:30:24;;;;;;;22.48;13.73;;;;;;;4.68;100.00;103878.31;5037064;28;20293;-68
2023/01/23 10:32:54;;;;;;;22.23;14.43;;;;;;;4.63;100.00;103877.22;5051652;28;20028;-65
2023/01/23 10:35:26;;;;;;;27.70;14.88;;;;;;;4.79;100.00;103869.16;5034777;28;20119;-68
2023/01/23 10:38:16;;;;;;;22.52;13.57;;;;;;;4.78;100.00;103866.50;5034677;28;20123;-68
2023/01/23 10:43:25;;;;;;;22.67;13.18;;;;;;;5.07;100.00;103866.75;5048808;28;20686;-69
2023/01/23 10:45:50;;;;;;;22.58;14.07;;;;;;;4.98;100.00;103866.38;5049186;28;20033;-65
2023/01/23 10:48:38;;;;;;;26.67;13.82;;;;;;;5.14;100.00;103875.69;5048904;28;20048;-67
2023/01/23 10:51:03;;;;;;;25.25;14.07;;;;;;;5.08;100.00;103865.03;5048867;28;20032;-69
2023/01/23 10:53:29;;;;;;;22.23;13.25;;;;;;;5.03;100.00;103870.09;5046690;28;20032;-68
2023/01/23 10:55:57;;;;;;;20.88;12.45;;;;;;;5.14;100.00;103878.31;5029270;28;20060;-67
2023/01/23 10:58:34;;;;;;;22.30;14.20;;;;;;;5.28;100.00;103874.50;5024772;28;20018;-67
2023/01/23 11:01:00;;;;;;;24.05;12.63;;;;;;;5.16;100.00;103880.16;5027289;28;20033;-67
2023/01/23 11:03:31;;;;;;;21.85;13.35;;;;;;;5.30;100.00;103883.28;5027697;28;20427;-67
2023/01/23 11:06:08;;;;;;;19.98;12.63;;;;;;;5.20;100.00;103886.38;5027370;28;20029;-68
2023/01/23 11:08:35;;;;;;;19.63;13.20;;;;;;;5.36;100.00;103882.63;5025521;28;20510;-67
2023/01/23 11:11:15;;;;;;;20.05;12.07;;;;;;;5.33;100.00;103881.63;5029371;28;20046;-68
2023/01/23 11:13:46;;;;;;;24.33;12.98;;;;;;;5.42;100.00;103877.63;5027101;28;20037;-68
2023/01/23 11:16:19;;;;;;;22.73;13.40;;;;;;;5.57;100.00;103882.53;5010166;28;20029;-67
2023/01/23 11:18:54;;;;;;;17.67;12.25;;;;;;;5.59;100.00;103884.28;5007417;28;20037;-69